Observations for LONDON HEATHROW, United Kingdom (EGLL)

EGLL 221220Z AUTO 10006KT 060V130 9999 OVC040 22/18 Q1019 NOSIG 
EGLL 221150Z AUTO 08005KT 9999 FEW017 OVC039 22/18 Q1019 NOSIG  
EGLL 221120Z AUTO VRB03KT 9999 OVC038 21/17 Q1020 NOSIG 
EGLL 221050Z AUTO VRB03KT 9999 OVC035 21/17 Q1020 NOSIG 
EGLL 221020Z VRB03KT 9999 SCT013 BKN037 20/17 Q1020 NOSIG   
EGLL 220950Z VRB02KT 9999 SCT012 BKN038 20/17 Q1020 NOSIG   
EGLL 220920Z VRB03KT 9999 FEW009 BKN012 19/16 Q1021 BECMG SCT015
EGLL 220850Z VRB03KT 9000 FEW008 BKN011 19/17 Q1021 NOSIG   
EGLL 220820Z 14003KT 7000 FEW008 OVC010 18/16 Q1021 TEMPO BKN008
EGLL 220750Z AUTO 15003KT 7000 BKN006 BKN012 OVC033 18/16 Q1020 BECMG SCT012
EGLL 220720Z AUTO 15004KT 6000 BKN007 OVC032 18/16 Q1020 BECMG SCT012   
EGLL 220650Z AUTO 17005KT 6000 BKN006 OVC013 17/16 Q1020 BECMG BKN010   
EGLL 220620Z AUTO 16004KT 7000 OVC006 17/16 Q1020 BECMG BKN010  
EGLL 220550Z AUTO 16005KT 7000 BKN007 OVC010 17/16 Q1020 TEMPO SCT007 BKN010
EGLL 220520Z AUTO 15004KT 6000 BKN007 OVC012 17/16 Q1020 TEMPO SCT007 BKN010
EGLL 220450Z AUTO 14004KT 5000 HZ OVC006 17/16 Q1020 NOSIG  
EGLL 220420Z AUTO 14004KT 4100 HZ OVC005 17/16 Q1020 NOSIG  
EGLL 220350Z AUTO 16004KT 4200 HZ OVC005 17/16 Q1020 TEMPO BKN004   
EGLL 220320Z AUTO 13005KT 4600 HZ SCT005 OVC008 17/16 Q1020 TEMPO BKN004
EGLL 220250Z AUTO 13005KT 5000 HZ BKN005 OVC025 17/16 Q1020 TEMPO 4000 BR   
EGLL 220220Z AUTO 15005KT 5000 HZ BKN005 OVC027 18/16 Q1020 TEMPO 4000 BR   
EGLL 220150Z AUTO 16005KT 6000 BKN006 OVC028 18/17 Q1020 NOSIG  
EGLL 220120Z AUTO 15005KT 7000 BKN006 OVC013 18/17 Q1020 NOSIG  
EGLL 220050Z AUTO 13004KT 6000 BKN006 OVC013 18/17 Q1020 NOSIG  
EGLL 220020Z AUTO 14004KT 6000 OVC006 18/17 Q1021 NOSIG 
EGLL 212350Z AUTO 14004KT 7000 OVC006 18/17 Q1021 NOSIG 
EGLL 212320Z AUTO 15004KT 8000 OVC006 18/17 Q1021 NOSIG 
EGLL 212250Z 15003KT 9000 BKN006 BKN033 18/17 Q1021 NOSIG   
EGLL 212220Z 19004KT 110V250 8000 FEW005 BKN006 18/17 Q1021 TEMPO SCT006 BKN035 
EGLL 212150Z 16004KT 120V230 9000 FEW006 BKN007 18/17 Q1021 
EGLL 212120Z 17005KT 120V220 9999 FEW006 BKN007 18/17 Q1021 BECMG 4000 BR   
EGLL 212050Z 17005KT 130V250 9999 FEW008 BKN011 18/17 Q1021 TEMPO BKN008
EGLL 212020Z 17005KT 110V260 9999 SCT011 BKN016 18/17 Q1021 
EGLL 211950Z VRB05KT 9999 FEW010 BKN016 19/17 Q1021 NOSIG   
EGLL 211920Z 16005KT 110V230 9999 SCT012 SCT016 BKN041 19/17 Q1021 NOSIG
EGLL 211850Z 15004KT 100V220 9999 FEW012 SCT015 BKN043 19/17 Q1021 NOSIG
EGLL 211820Z 18004KT 130V260 9999 SCT012 BKN017 19/17 Q1021 NOSIG   
EGLL 211750Z 19004KT 130V260 9999 FEW013 BKN019 19/16 Q1021 TEMPO BKN0134   
EGLL 211720Z AUTO VRB03KT 9999 BKN012 OVC017 19/16 Q1021 NOSIG  
EGLL 211650Z AUTO VRB04KT 9999 OVC014 19/17 Q1021 TEMPO BKN016  
EGLL 211620Z AUTO VRB03KT 9999 OVC011 19/16 Q1021 TEMPO SCT012 BKN015   
EGLL 211550Z AUTO VRB03KT 9999 BKN012 OVC021 19/16 Q1021 TEMPO SCT012   
EGLL 211520Z AUTO 09004KT 040V170 9999 OVC013 19/16 Q1021 BECMG BKN015  
EGLL 211450Z AUTO VRB03KT 9999 BKN011 OVC015 19/16 Q1021 BECMG SCT012   
EGLL 211420Z AUTO VRB04KT 9999 OVC012 18/16 Q1021 BECMG SCT012 BKN015   
EGLL 211350Z AUTO 13004KT 090V150 9999 OVC013 18/16 Q1021 BECMG BKN015  
EGLL 211320Z AUTO 13004KT 090V170 9999 OVC013 18/16 Q1021 BECMG BKN015  
EGLL 211250Z AUTO 11005KT 080V150 9999 BKN012 OVC021 18/16 Q1021 TEMPO BKN016   
EGLL 211220Z VRB03KT 9999 FEW011 BKN016 19/16 Q1021 NOSIG   
EGLL 211150Z 12004KT 070V170 9999 FEW008 BKN011 19/16 Q1022 NOSIG